createdAt,value
2022-12-19T03:37:38.733Z,107.55
2022-12-19T04:58:32.365Z,92.90
2022-12-19T05:34:50.797Z,178.65
2022-12-19T05:54:04.407Z,114.80
2022-12-19T06:19:09.908Z,86.85
2022-12-19T06:22:05.182Z,85.65
2022-12-19T06:29:57.718Z,75.68
2022-12-19T06:56:01.521Z,88.07
2022-12-19T06:58:34.525Z,95.82
2022-12-19T07:15:18.783Z,84.78
2022-12-19T08:23:27.976Z,82.10
2022-12-19T08:43:54.281Z,73.53
2022-12-19T11:40:16.762Z,51.70
2022-12-19T11:56:08.102Z,53.38
2022-12-19T11:58:50.988Z,49.10
2022-12-19T12:01:28.704Z,56.60
2022-12-19T12:04:12.549Z,61.08
2022-12-19T12:06:57.836Z,54.75
2022-12-19T12:14:42.260Z,55.42
2022-12-19T12:22:34.755Z,56.33
2022-12-19T12:29:43.034Z,54.17
2022-12-19T12:31:09.514Z,51.72
2022-12-19T12:31:12.117Z,51.50
2022-12-19T12:31:42.779Z,51.95
2022-12-19T12:32:06.050Z,46.22
2022-12-19T12:35:29.221Z,49.38
2022-12-19T12:41:02.755Z,48.13
2022-12-19T12:43:39.764Z,45.17
2022-12-19T12:46:15.389Z,57.03
2022-12-19T12:49:06.559Z,48.65
2022-12-19T12:51:37.775Z,55.00
2022-12-19T12:54:12.467Z,58.10
2022-12-19T12:56:42.456Z,51.60
2022-12-19T12:59:23.386Z,51.35
2022-12-19T13:01:56.353Z,49.50
2022-12-19T13:04:30.276Z,55.92
2022-12-19T13:07:16.142Z,56.05
2022-12-19T13:09:46.175Z,54.25
2022-12-19T13:12:46.164Z,51.58
2022-12-19T13:15:38.045Z,53.33
2022-12-19T13:18:36.049Z,57.22
2022-12-19T13:21:07.181Z,54.08
2022-12-19T13:23:38.995Z,45.65
2022-12-19T13:26:39.899Z,57.20
2022-12-19T13:29:31.841Z,52.70
2022-12-19T13:32:13.760Z,51.00
2022-12-19T13:35:04.781Z,52.72
2022-12-19T13:39:48.680Z,54.17
2022-12-19T13:41:02.869Z,55.53
2022-12-19T13:46:24.911Z,48.20
2022-12-19T13:49:01.480Z,60.00
2022-12-19T13:51:43.679Z,54.55
2022-12-19T13:54:23.382Z,53.72
2022-12-19T13:56:53.656Z,57.83
2022-12-19T13:59:26.293Z,56.92
2022-12-19T14:01:56.776Z,55.42
2022-12-19T14:04:30.212Z,62.92
2022-12-19T14:07:06.123Z,53.70
2022-12-19T14:11:31.399Z,61.03
2022-12-19T14:13:42.546Z,58.38
2022-12-19T14:15:52.494Z,58.63
2022-12-19T14:18:42.646Z,65.13
2022-12-19T14:22:11.323Z,61.65
2022-12-19T14:24:25.832Z,105.15
2022-12-19T14:28:20.204Z,149.98
2022-12-19T14:30:28.805Z,68.65
2022-12-19T14:33:39.569Z,64.40
2022-12-19T14:36:10.095Z,55.10
2022-12-19T14:39:26.778Z,63.85
2022-12-19T14:53:34.306Z,74.85
2022-12-19T14:54:02.162Z,70.32
2022-12-19T14:54:03.587Z,71.82
2022-12-19T14:54:32.220Z,68.93
2022-12-19T14:56:33.575Z,65.43
2022-12-19T14:59:49.044Z,65.70
2022-12-19T15:02:32.947Z,69.20
2022-12-19T15:05:08.195Z,67.07
2022-12-19T15:07:43.870Z,60.70
2022-12-19T15:11:09.919Z,66.03
2022-12-19T15:14:51.283Z,61.63
2022-12-19T15:16:26.985Z,71.30
2022-12-19T15:19:00.785Z,65.68
2022-12-19T15:21:31.132Z,71.78
2022-12-19T15:24:00.744Z,65.03
2022-12-19T15:26:35.659Z,69.53
2022-12-19T15:29:15.472Z,66.70
2022-12-19T15:31:49.007Z,70.43
2022-12-19T15:34:37.990Z,73.05
2022-12-19T15:37:16.717Z,79.05
2022-12-19T15:39:47.323Z,70.25
2022-12-19T15:42:25.393Z,78.65
2022-12-19T15:44:57.522Z,68.45
2022-12-19T15:50:30.236Z,65.10
2022-12-19T15:53:03.189Z,76.50
2022-12-19T15:55:32.237Z,77.97
2022-12-19T15:58:05.071Z,77.38
2022-12-19T16:00:37.277Z,73.63
2022-12-19T16:03:22.848Z,78.68
2022-12-19T16:05:53.985Z,87.18
2022-12-19T16:08:27.618Z,99.85
2022-12-19T16:11:01.765Z,78.07
2022-12-19T16:13:37.218Z,88.63
2022-12-19T16:16:15.018Z,77.28
2022-12-19T16:18:45.791Z,76.82
2022-12-19T16:21:33.531Z,77.28
2022-12-19T16:24:03.592Z,80.15
2022-12-19T16:26:38.746Z,83.45
2022-12-19T16:29:20.383Z,76.90
2022-12-19T16:31:50.515Z,103.07
2022-12-19T16:34:23.299Z,80.15
2022-12-19T16:36:53.332Z,88.95
2022-12-19T16:39:21.550Z,95.50
2022-12-19T16:41:51.451Z,81.88
2022-12-19T16:44:23.235Z,81.13
2022-12-19T16:46:53.161Z,82.57
2022-12-19T16:49:24.643Z,97.03
2022-12-19T16:51:53.308Z,78.45
2022-12-19T16:54:22.948Z,77.40
2022-12-19T16:56:55.867Z,79.25
2022-12-19T16:59:34.430Z,88.00
2022-12-19T17:02:15.977Z,77.13
2022-12-19T17:04:50.453Z,79.10
2022-12-19T17:07:22.303Z,97.57
2022-12-19T17:09:51.689Z,86.18
2022-12-19T17:12:19.923Z,92.15
2022-12-19T17:14:48.898Z,93.30
2022-12-19T17:17:17.605Z,92.80
2022-12-19T17:19:47.590Z,96.85
2022-12-19T17:22:21.739Z,111.45
2022-12-19T17:24:51.427Z,104.38
2022-12-19T17:27:21.452Z,90.93
2022-12-19T17:29:50.613Z,102.97
2022-12-19T17:32:24.338Z,83.50
2022-12-19T17:34:54.330Z,81.20
2022-12-19T17:37:24.181Z,78.93
2022-12-19T17:39:53.049Z,72.07
2022-12-19T17:42:24.170Z,81.57
2022-12-19T17:44:54.076Z,82.72
2022-12-19T17:47:31.315Z,85.60
2022-12-19T17:50:00.037Z,83.03
2022-12-19T17:52:33.635Z,87.47
2022-12-19T17:55:14.291Z,83.43
2022-12-19T17:57:44.229Z,87.90
2022-12-19T18:00:13.780Z,89.60
2022-12-19T18:02:43.842Z,79.65
2022-12-19T18:05:28.688Z,99.53
2022-12-19T18:07:58.645Z,83.15
2022-12-19T18:10:31.624Z,79.90
2022-12-19T18:13:01.520Z,73.15
2022-12-19T18:15:30.495Z,75.45
2022-12-19T18:18:00.456Z,75.20
2022-12-19T18:20:33.361Z,72.57
2022-12-19T18:23:03.328Z,85.38
2022-12-19T18:25:33.305Z,79.90
2022-12-19T18:28:06.151Z,94.20
2022-12-19T18:30:36.505Z,86.53
2022-12-19T18:33:07.034Z,84.47
2022-12-19T18:35:43.105Z,79.47
2022-12-19T18:38:21.285Z,77.55
2022-12-19T18:40:55.527Z,84.60
2022-12-19T18:43:24.994Z,76.90
2022-12-19T18:45:53.662Z,74.45
2022-12-19T18:48:31.345Z,79.65
2022-12-19T18:51:01.020Z,89.80
2022-12-19T18:53:36.199Z,82.82
2022-12-19T18:56:05.919Z,78.47
2022-12-19T18:58:34.075Z,80.15
2022-12-19T19:01:02.907Z,78.05
2022-12-19T19:03:37.773Z,76.70
2022-12-19T19:06:27.086Z,77.20
2022-12-19T19:08:56.958Z,74.25
2022-12-19T19:11:41.083Z,72.15
2022-12-19T19:14:09.093Z,79.72
2022-12-19T19:16:37.200Z,77.32
2022-12-19T19:19:07.449Z,82.20
2022-12-19T19:21:36.066Z,76.97
2022-12-19T19:24:12.255Z,84.78
2022-12-19T19:26:39.731Z,83.93
2022-12-19T19:29:07.101Z,81.53
2022-12-19T19:31:41.906Z,77.95
2022-12-19T19:34:32.063Z,81.00
2022-12-19T19:37:02.237Z,85.03
2022-12-19T19:39:33.243Z,89.45
2022-12-19T19:42:01.275Z,84.68
2022-12-19T19:44:30.006Z,91.05
2022-12-19T19:46:57.515Z,84.28
2022-12-19T19:49:25.118Z,98.30
2022-12-19T19:51:56.990Z,89.30
2022-12-19T19:54:29.869Z,85.03
2022-12-19T19:56:57.307Z,82.13
2022-12-19T19:59:25.564Z,85.22
2022-12-19T20:01:54.329Z,86.68
2022-12-19T20:04:22.256Z,94.57
2022-12-19T20:06:49.650Z,79.30
2022-12-19T20:09:17.343Z,84.63
2022-12-19T20:11:45.065Z,82.57
2022-12-19T20:14:12.608Z,83.10
2022-12-19T20:16:40.182Z,90.25
2022-12-19T20:19:07.641Z,80.85
2022-12-19T20:21:35.071Z,85.88
2022-12-19T20:24:02.580Z,92.28
2022-12-19T20:26:29.952Z,90.38
2022-12-19T20:28:57.363Z,79.95
2022-12-19T20:31:26.113Z,87.75
2022-12-19T20:33:56.760Z,80.80
2022-12-19T20:36:25.114Z,88.05
2022-12-19T20:38:52.502Z,77.55
2022-12-19T20:41:19.956Z,84.47
2022-12-19T20:43:48.200Z,86.68
2022-12-19T20:46:18.165Z,80.00
2022-12-19T20:48:46.453Z,86.55
2022-12-19T20:51:16.002Z,91.70
2022-12-19T20:53:44.610Z,85.13
2022-12-19T20:56:14.837Z,88.10
2022-12-19T20:58:42.618Z,86.38
2022-12-19T21:01:18.100Z,100.38
2022-12-19T21:03:48.342Z,103.22
2022-12-19T21:06:18.739Z,98.35
2022-12-19T21:08:46.736Z,93.75
2022-12-19T21:11:15.650Z,86.28
2022-12-19T21:13:43.489Z,90.65
2022-12-19T21:16:14.038Z,91.93
2022-12-19T21:18:43.234Z,85.05
2022-12-19T21:21:15.112Z,91.05
2022-12-19T21:23:43.442Z,92.10
2022-12-19T21:26:11.050Z,85.70
2022-12-19T21:28:38.783Z,87.82
2022-12-19T21:31:14.084Z,91.65
2022-12-19T21:33:41.833Z,88.28
2022-12-19T21:36:19.293Z,100.68
2022-12-19T21:38:48.170Z,88.78
2022-12-19T21:41:21.694Z,99.38
2022-12-19T21:43:53.342Z,93.03
2022-12-19T21:46:23.734Z,107.40
2022-12-19T21:48:53.218Z,92.07
2022-12-19T21:51:22.807Z,84.45
2022-12-19T21:53:54.859Z,78.68
2022-12-19T21:56:25.343Z,81.57
2022-12-19T21:58:58.197Z,85.35
2022-12-19T22:01:26.489Z,92.95
2022-12-19T22:03:58.942Z,85.35
2022-12-19T22:06:30.686Z,86.68
2022-12-19T22:08:58.539Z,101.18
2022-12-19T22:11:26.783Z,81.47
2022-12-19T22:13:54.654Z,87.53
2022-12-19T22:16:22.218Z,87.53
2022-12-19T22:18:51.403Z,86.57
2022-12-19T22:21:19.798Z,104.18
2022-12-19T22:23:47.198Z,92.85
2022-12-19T22:26:21.152Z,105.22
2022-12-19T22:28:51.231Z,96.10
2022-12-19T22:31:24.577Z,94.57
2022-12-19T22:33:58.141Z,90.50
2022-12-19T22:36:28.708Z,94.05
2022-12-19T22:38:58.153Z,92.60
2022-12-19T22:41:26.012Z,84.38
2022-12-19T22:43:54.567Z,90.60
2022-12-19T22:46:26.430Z,106.85
2022-12-19T22:48:56.964Z,94.65
2022-12-19T22:51:25.278Z,90.57
2022-12-19T22:53:52.805Z,97.53
2022-12-19T22:56:23.788Z,90.78
2022-12-19T22:58:53.052Z,90.00
2022-12-19T23:01:21.988Z,89.80
2022-12-19T23:03:51.446Z,91.85
2022-12-19T23:06:19.576Z,91.50
2022-12-19T23:08:48.062Z,88.35
2022-12-19T23:11:17.694Z,84.53
2022-12-19T23:13:46.336Z,89.65
2022-12-19T23:16:13.967Z,84.53
2022-12-19T23:18:41.996Z,86.15
2022-12-19T23:21:12.432Z,87.78
2022-12-19T23:23:42.647Z,89.07
2022-12-19T23:26:16.673Z,88.82
2022-12-19T23:28:49.507Z,85.32
2022-12-19T23:31:17.329Z,84.68
2022-12-19T23:33:44.837Z,87.25
2022-12-19T23:36:12.203Z,88.22
2022-12-19T23:38:40.641Z,88.35
2022-12-19T23:41:11.036Z,86.03
2022-12-19T23:43:40.254Z,83.43
2022-12-19T23:46:17.261Z,92.65
2022-12-19T23:48:45.004Z,84.63
2022-12-19T23:51:16.125Z,91.50
2022-12-19T23:53:45.091Z,92.63
2022-12-19T23:56:21.568Z,91.50
2022-12-19T23:58:49.583Z,91.00
